Terminal Aerodrome Forecast
Issued by NWS

Home | Current Version | Previous Version | Text Only | Print | Product List | Glossary On
Versions: 1 2 3 4 5 6 7 8 9 10 11 12 13 14
000
FTUS46 KMTR 062345
TAFSNS
TAF
KSNS 062345Z 0700/0724 29016KT P6SM FEW250
     FM070200 27009KT P6SM SCT010 BKN250
      TEMPO 0703/0706 6SM BR OVC009
     FM070600 27006KT 5SM BR OVC004
      TEMPO 0708/0712 -DZ
     FM071200 VRB03KT 1SM BR VV002
     FM071730 30010KT P6SM SCT250=

USA.gov is the U.S. government's official web portal to all federal, state and local government web resources and services.